Seago Felixstowe — OZCX2 — position and weather

sailwx.info

Track history (hours):
 
Tides and Currents Weather Stations Pressure Air Temp Water Temp Dewpoint Dewpoint Depression Visibility Wind Speed Wind Dir Waves Ship Positions

Seago Felixstowe

Last reported at 2018-May-25 11:55 UTC. Time now 2018-May-25 18:55 UTC.
Position N 31°13' E 029°42'.

Length 294 m; draft 11 m.

Type: Ship (hazmat cat A). MMSI: 219196000.

Date/timePositionNaut miles runAvg speedWind from/ knotsBaromVisibWave heightAir tempDewpointWater temp
2018-May-25 11:55N 31°13' E 029°42'0 0.0
2018-May-25 10:49N 31°13' E 029°42'0 0.0
2018-May-25 10:25N 31°13' E 029°42'0 0.0
2018-May-24 21:49N 31°13' E 029°42'0 0.0
2018-May-24 20:07N 31°13' E 029°42'0 0.0
2018-May-24 19:46N 31°13' E 029°42'0 0.0
2018-May-24 19:25N 31°13' E 029°42'25510.7
2018-May-23 19:40N 31°52' E 034°37'1 8.3
2018-May-23 19:30N 31°51' E 034°38'2 0.2
2018-May-23 10:22N 31°49' E 034°39'2 0.3
2018-May-23 02:20N 31°51' E 034°38'1 1.6
2018-May-23 02:00N 31°52' E 034°37'5 6.0
2018-May-23 01:06N 31°51' E 034°31'2 9.1
2018-May-23 00:52N 31°52' E 034°29'3 9.3
2018-May-23 00:30N 31°53' E 034°25'5 9.3
2018-May-23 00:00N 31°56' E 034°20'5 9.4
2018-May-22 23:31N 31°58' E 034°15'5 9.4
2018-May-22 23:00N 31°59' E 034°10'5 9.6
2018-May-22 22:30N 32°01' E 034°05'5 9.4
2018-May-22 22:00N 32°03' E 033°60'57 8.7
2018-May-22 15:23N 32°57' E 033°34'4 9.7
2018-May-22 15:00N 33°00' E 033°35'5 9.7
2018-May-22 14:30N 33°05' E 033°35'810.4
2018-May-22 13:46N 33°13' E 033°36'310.7
2018-May-22 13:29N 33°16' E 033°36'810.4
2018-May-22 12:43N 33°24' E 033°37'1 6.7
2018-May-22 12:30N 33°25' E 033°36'3 7.0
2018-May-22 12:00N 33°26' E 033°32'7610.2
2018-May-22 04:28N 34°39' E 033°03'2 3.9
2018-May-22 03:59N 34°39' E 033°01'0 0.0
2018-May-22 03:29N 34°39' E 033°01'0 0.0
2018-May-22 02:59N 34°39' E 033°01'0 0.0
2018-May-22 02:29N 34°39' E 033°01'0 0.0
2018-May-22 01:59N 34°39' E 033°01'0 0.0
2018-May-22 01:30N 34°39' E 033°01'0 0.0
2018-May-22 01:01N 34°39' E 033°01'0 0.0
2018-May-22 00:25N 34°39' E 033°01'0 0.0
2018-May-21 23:58N 34°39' E 033°01'0 0.0
2018-May-21 23:29N 34°39' E 033°01'0 0.1
2018-May-21 22:59N 34°39' E 033°01'0 0.1
2018-May-21 22:31N 34°39' E 033°01'0 0.0
2018-May-21 21:55N 34°39' E 033°01'0 0.0
2018-May-21 21:22N 34°39' E 033°01'0 0.0
2018-May-21 20:57N 34°39' E 033°01'0 0.0
2018-May-21 20:27N 34°39' E 033°01'0 0.0
2018-May-21 20:01N 34°39' E 033°01'0 0.0
2018-May-21 19:29N 34°39' E 033°01'0 0.1
2018-May-21 19:00N 34°39' E 033°01'0 0.1
2018-May-21 18:30N 34°39' E 033°01'0 0.1
2018-May-21 17:57N 34°39' E 033°01'0 0.1
2018-May-21 17:29N 34°39' E 033°01'0 0.1
2018-May-21 16:59N 34°39' E 033°01'0 0.0
2018-May-21 16:28N 34°39' E 033°01'0 0.0
2018-May-21 15:57N 34°39' E 033°01'0 0.0
2018-May-21 15:26N 34°39' E 033°01'0 0.0
2018-May-21 14:58N 34°39' E 033°01'0 0.0
2018-May-21 14:25N 34°39' E 033°01'0 0.0
2018-May-21 13:58N 34°39' E 033°01'0 0.0
2018-May-21 13:22N 34°39' E 033°01'0 0.0
2018-May-21 13:00N 34°39' E 033°01'0 0.5
2018-May-21 12:30N 34°39' E 033°01'2 3.4
2018-May-21 11:59N 34°39' E 033°03'1610.2
2018-May-21 10:28N 34°30' E 032°48'918.0
2018-May-21 09:59N 34°30' E 032°38'917.8
2018-May-21 09:30N 34°31' E 032°27'1018.4
2018-May-21 08:56N 34°31' E 032°15'  
2018-May-19 04:51N 36°29' E 014°04'617.7
2018-May-19 04:30N 36°31' E 013°57'  
2018-May-16 22:57N 36°03' W 004°55'817.3
2018-May-16 22:29N 36°01' W 005°04'817.4
2018-May-16 22:01N 36°00' W 005°14'1018.9
2018-May-16 21:30N 35°57' W 005°26'1018.1
2018-May-16 20:58N 35°55' W 005°38'817.1
2018-May-16 20:29N 35°55' W 005°47'817.4
2018-May-16 20:00N 35°54' W 005°58'13116.8
2018-May-16 12:15N 36°23' W 008°36'517.5
2018-May-16 11:57N 36°25' W 008°42'817.7
2018-May-16 11:30N 36°27' W 008°51'2117.7
2018-May-16 10:19N 36°33' W 009°16'1017.5
2018-May-16 09:46N 36°40' W 009°25'517.6
2018-May-16 09:29N 36°44' W 009°28'1517.0
2018-May-16 08:37N 36°57' W 009°36'417.8
2018-May-16 08:25N 37°01' W 009°37'1017.7
2018-May-16 07:51N 37°11' W 009°40'617.6
2018-May-16 07:30N 37°17' W 009°41'917.9
2018-May-16 07:00N 37°25' W 009°44'917.8
2018-May-16 06:31N 37°34' W 009°47'917.6
2018-May-16 06:01N 37°42' W 009°49'917.6
2018-May-16 05:30N 37°51' W 009°52'917.6
2018-May-16 05:00N 37°60' W 009°54'917.6
2018-May-16 04:30N 38°08' W 009°57'917.9
2018-May-16 04:01N 38°17' W 010°00'918.0
2018-May-16 03:30N 38°25' W 010°03'918.0
2018-May-16 03:00N 38°34' W 010°05'918.1
2018-May-16 02:31N 38°43' W 010°07'917.8
2018-May-16 02:00N 38°52' W 010°07'917.4
2018-May-16 01:30N 39°01' W 010°08'917.3
2018-May-16 01:00N 39°09' W 010°08'  
Track history (hours):
 
Tides and Currents Weather Stations Pressure Air Temp Water Temp Dewpoint Dewpoint Depression Visibility Wind Speed Wind Dir Waves Ship Positions

Seago Felixstowe

Last reported at 2018-May-25 11:55 UTC. Time now 2018-May-25 18:55 UTC.
Position N 31°13' E 029°42'.

Length 294 m; draft 11 m.

Type: Ship (hazmat cat A). MMSI: 219196000.

Date/timePositionNaut miles runAvg speedWind from/ knotsBaromVisibWave heightAir tempDewpointWater temp
2018-May-25 11:55N 31°13' E 029°42'0 0.0
2018-May-25 10:49N 31°13' E 029°42'0 0.0
2018-May-25 10:25N 31°13' E 029°42'0 0.0
2018-May-24 21:49N 31°13' E 029°42'0 0.0
2018-May-24 20:07N 31°13' E 029°42'0 0.0
2018-May-24 19:46N 31°13' E 029°42'0 0.0
2018-May-24 19:25N 31°13' E 029°42'25510.7
2018-May-23 19:40N 31°52' E 034°37'1 8.3
2018-May-23 19:30N 31°51' E 034°38'2 0.2
2018-May-23 10:22N 31°49' E 034°39'2 0.3
2018-May-23 02:20N 31°51' E 034°38'1 1.6
2018-May-23 02:00N 31°52' E 034°37'5 6.0
2018-May-23 01:06N 31°51' E 034°31'2 9.1
2018-May-23 00:52N 31°52' E 034°29'3 9.3
2018-May-23 00:30N 31°53' E 034°25'5 9.3
2018-May-23 00:00N 31°56' E 034°20'5 9.4
2018-May-22 23:31N 31°58' E 034°15'5 9.4
2018-May-22 23:00N 31°59' E 034°10'5 9.6
2018-May-22 22:30N 32°01' E 034°05'5 9.4
2018-May-22 22:00N 32°03' E 033°60'57 8.7
2018-May-22 15:23N 32°57' E 033°34'4 9.7
2018-May-22 15:00N 33°00' E 033°35'5 9.7
2018-May-22 14:30N 33°05' E 033°35'810.4
2018-May-22 13:46N 33°13' E 033°36'310.7
2018-May-22 13:29N 33°16' E 033°36'810.4
2018-May-22 12:43N 33°24' E 033°37'1 6.7
2018-May-22 12:30N 33°25' E 033°36'3 7.0
2018-May-22 12:00N 33°26' E 033°32'7610.2
2018-May-22 04:28N 34°39' E 033°03'2 3.9
2018-May-22 03:59N 34°39' E 033°01'0 0.0
2018-May-22 03:29N 34°39' E 033°01'0 0.0
2018-May-22 02:59N 34°39' E 033°01'0 0.0
2018-May-22 02:29N 34°39' E 033°01'0 0.0
2018-May-22 01:59N 34°39' E 033°01'0 0.0
2018-May-22 01:30N 34°39' E 033°01'0 0.0
2018-May-22 01:01N 34°39' E 033°01'0 0.0
2018-May-22 00:25N 34°39' E 033°01'0 0.0
2018-May-21 23:58N 34°39' E 033°01'0 0.0
2018-May-21 23:29N 34°39' E 033°01'0 0.1
2018-May-21 22:59N 34°39' E 033°01'0 0.1
2018-May-21 22:31N 34°39' E 033°01'0 0.0
2018-May-21 21:55N 34°39' E 033°01'0 0.0
2018-May-21 21:22N 34°39' E 033°01'0 0.0
2018-May-21 20:57N 34°39' E 033°01'0 0.0
2018-May-21 20:27N 34°39' E 033°01'0 0.0
2018-May-21 20:01N 34°39' E 033°01'0 0.0
2018-May-21 19:29N 34°39' E 033°01'0 0.1
2018-May-21 19:00N 34°39' E 033°01'0 0.1
2018-May-21 18:30N 34°39' E 033°01'0 0.1
2018-May-21 17:57N 34°39' E 033°01'0 0.1
2018-May-21 17:29N 34°39' E 033°01'0 0.1
2018-May-21 16:59N 34°39' E 033°01'0 0.0
2018-May-21 16:28N 34°39' E 033°01'0 0.0
2018-May-21 15:57N 34°39' E 033°01'0 0.0
2018-May-21 15:26N 34°39' E 033°01'0 0.0
2018-May-21 14:58N 34°39' E 033°01'0 0.0
2018-May-21 14:25N 34°39' E 033°01'0 0.0
2018-May-21 13:58N 34°39' E 033°01'0 0.0
2018-May-21 13:22N 34°39' E 033°01'0 0.0
2018-May-21 13:00N 34°39' E 033°01'0 0.5
2018-May-21 12:30N 34°39' E 033°01'2 3.4
2018-May-21 11:59N 34°39' E 033°03'1610.2
2018-May-21 10:28N 34°30' E 032°48'918.0
2018-May-21 09:59N 34°30' E 032°38'917.8
2018-May-21 09:30N 34°31' E 032°27'1018.4
2018-May-21 08:56N 34°31' E 032°15'  
2018-May-19 04:51N 36°29' E 014°04'617.7
2018-May-19 04:30N 36°31' E 013°57'  
2018-May-16 22:57N 36°03' W 004°55'817.3
2018-May-16 22:29N 36°01' W 005°04'817.4
2018-May-16 22:01N 36°00' W 005°14'1018.9
2018-May-16 21:30N 35°57' W 005°26'1018.1
2018-May-16 20:58N 35°55' W 005°38'817.1
2018-May-16 20:29N 35°55' W 005°47'817.4
2018-May-16 20:00N 35°54' W 005°58'13116.8
2018-May-16 12:15N 36°23' W 008°36'517.5
2018-May-16 11:57N 36°25' W 008°42'817.7
2018-May-16 11:30N 36°27' W 008°51'2117.7
2018-May-16 10:19N 36°33' W 009°16'1017.5
2018-May-16 09:46N 36°40' W 009°25'517.6
2018-May-16 09:29N 36°44' W 009°28'1517.0
2018-May-16 08:37N 36°57' W 009°36'417.8
2018-May-16 08:25N 37°01' W 009°37'1017.7
2018-May-16 07:51N 37°11' W 009°40'617.6
2018-May-16 07:30N 37°17' W 009°41'917.9
2018-May-16 07:00N 37°25' W 009°44'917.8
2018-May-16 06:31N 37°34' W 009°47'917.6
2018-May-16 06:01N 37°42' W 009°49'917.6
2018-May-16 05:30N 37°51' W 009°52'917.6
2018-May-16 05:00N 37°60' W 009°54'917.6
2018-May-16 04:30N 38°08' W 009°57'917.9
2018-May-16 04:01N 38°17' W 010°00'918.0
2018-May-16 03:30N 38°25' W 010°03'918.0
2018-May-16 03:00N 38°34' W 010°05'918.1
2018-May-16 02:31N 38°43' W 010°07'917.8
2018-May-16 02:00N 38°52' W 010°07'917.4
2018-May-16 01:30N 39°01' W 010°08'917.3
2018-May-16 01:00N 39°09' W 010°08'  

Dump ship's entire track history